createdAt,value
2022-11-20T00:04:25.260Z,33.17
2022-11-20T00:09:20.382Z,33.72
2022-11-20T00:14:13.965Z,40.58
2022-11-20T00:19:07.830Z,37.72
2022-11-20T00:24:01.604Z,37.70
2022-11-20T00:28:58.178Z,36.45
2022-11-20T00:33:52.152Z,40.83
2022-11-20T00:38:46.592Z,39.25
2022-11-20T00:43:40.122Z,43.50
2022-11-20T00:48:34.915Z,42.67
2022-11-20T00:53:28.316Z,38.65
2022-11-20T00:58:21.624Z,37.60
2022-11-20T01:03:14.952Z,38.97
2022-11-20T01:08:09.671Z,37.22
2022-11-20T01:13:18.434Z,36.28
2022-11-20T01:18:15.242Z,35.85
2022-11-20T01:23:09.828Z,34.92
2022-11-20T01:28:03.020Z,32.75
2022-11-20T01:32:57.660Z,33.88
2022-11-20T01:37:52.384Z,30.95
2022-11-20T01:43:11.813Z,29.55
2022-11-20T01:48:05.703Z,36.60
2022-11-20T01:53:02.890Z,34.40
2022-11-20T01:58:00.143Z,39.55
2022-11-20T02:03:00.793Z,38.58
2022-11-20T02:07:56.823Z,34.63
2022-11-20T02:13:07.825Z,33.63
2022-11-20T02:18:02.757Z,36.38
2022-11-20T02:23:00.230Z,34.58
2022-11-20T02:27:54.819Z,34.85
2022-11-20T02:32:48.011Z,33.05
2022-11-20T02:37:42.350Z,28.50
2022-11-20T02:42:35.566Z,30.48
2022-11-20T02:47:30.217Z,30.45
2022-11-20T02:52:23.470Z,27.80
2022-11-20T02:57:16.774Z,36.15
2022-11-20T03:02:09.989Z,31.10
2022-11-20T03:07:05.101Z,31.73
2022-11-20T03:11:58.536Z,35.63
2022-11-20T03:16:51.653Z,31.27
2022-11-20T03:21:46.278Z,33.15
2022-11-20T03:26:41.229Z,29.75
2022-11-20T03:31:36.709Z,31.92
2022-11-20T03:36:31.976Z,33.63
2022-11-20T03:41:26.610Z,32.60
2022-11-20T03:46:23.746Z,30.75
2022-11-20T03:51:18.934Z,32.08
2022-11-20T03:56:14.009Z,33.92
2022-11-20T04:01:08.857Z,37.58
2022-11-20T04:06:06.278Z,34.20
2022-11-20T04:11:09.858Z,33.65
2022-11-20T04:16:03.190Z,36.97
2022-11-20T04:20:58.388Z,41.83
2022-11-20T04:25:53.083Z,38.17
2022-11-20T04:30:46.489Z,38.65
2022-11-20T04:35:40.268Z,40.72
2022-11-20T04:40:33.573Z,38.22
2022-11-20T04:45:28.212Z,41.83
2022-11-20T04:50:21.499Z,45.63
2022-11-20T04:55:14.949Z,38.40
2022-11-20T05:00:09.513Z,39.13
2022-11-20T05:05:04.263Z,38.20
2022-11-20T05:09:57.641Z,35.85
2022-11-20T05:14:50.865Z,40.72
2022-11-20T05:19:44.195Z,41.28
2022-11-20T05:24:38.808Z,41.50
2022-11-20T05:29:32.023Z,44.47
2022-11-20T05:34:25.301Z,41.45
2022-11-20T05:39:19.969Z,40.33
2022-11-20T05:44:15.237Z,44.97
2022-11-20T05:49:08.514Z,48.70
2022-11-20T05:54:01.803Z,43.30
2022-11-20T05:58:55.218Z,47.85
2022-11-20T06:03:51.913Z,41.88
2022-11-20T06:08:45.644Z,38.97
2022-11-20T06:13:42.265Z,42.55
2022-11-20T06:18:36.053Z,33.08
2022-11-20T06:23:32.399Z,35.65
2022-11-20T06:28:25.639Z,35.25
2022-11-20T06:33:18.911Z,35.20
2022-11-20T06:38:12.132Z,39.47
2022-11-20T06:43:06.853Z,35.85
2022-11-20T06:48:00.315Z,33.67
2022-11-20T06:52:53.895Z,32.83
2022-11-20T06:57:49.680Z,31.23
2022-11-20T07:02:46.861Z,33.58
2022-11-20T07:07:40.295Z,36.85
2022-11-20T07:12:33.649Z,33.55
2022-11-20T07:17:28.836Z,37.45
2022-11-20T07:22:23.866Z,36.53
2022-11-20T07:27:17.085Z,29.50
2022-11-20T07:32:12.926Z,32.47
2022-11-20T07:37:10.294Z,35.05
2022-11-20T07:42:05.739Z,38.50
2022-11-20T07:46:59.223Z,36.63
2022-11-20T07:51:52.782Z,37.45
2022-11-20T07:56:46.235Z,33.55
2022-11-20T08:01:40.815Z,34.42
2022-11-20T08:06:34.367Z,36.95
2022-11-20T08:11:44.865Z,30.55
2022-11-20T08:16:38.074Z,34.25
2022-11-20T08:21:38.133Z,32.25
2022-11-20T08:31:25.284Z,46.42
2022-11-20T08:36:19.153Z,28.42
2022-11-20T08:41:26.766Z,29.13
2022-11-20T08:46:20.301Z,32.08
2022-11-20T08:51:14.178Z,32.03
2022-11-20T08:56:07.999Z,29.60
2022-11-20T09:01:02.601Z,27.30
2022-11-20T09:06:01.312Z,28.73
2022-11-20T09:10:54.636Z,25.15
2022-11-20T09:15:47.933Z,27.95
2022-11-20T09:20:43.743Z,31.30
2022-11-20T09:25:38.156Z,34.83
2022-11-20T09:30:32.046Z,27.95
2022-11-20T09:35:25.560Z,32.05
2022-11-20T09:40:23.221Z,35.58
2022-11-20T09:45:27.639Z,40.30
2022-11-20T09:50:33.301Z,39.20
2022-11-20T09:55:31.700Z,32.53
2022-11-20T10:00:25.349Z,32.58
2022-11-20T10:05:22.504Z,32.40
2022-11-20T10:10:24.314Z,30.08
2022-11-20T10:15:31.906Z,28.67
2022-11-20T10:20:32.234Z,30.10
2022-11-20T10:25:32.398Z,32.08
2022-11-20T10:30:27.239Z,26.08
2022-11-20T10:35:25.860Z,26.58
2022-11-20T10:40:25.547Z,27.17
2022-11-20T10:45:40.244Z,34.22
2022-11-20T10:50:33.957Z,31.08
2022-11-20T10:55:35.444Z,33.30
2022-11-20T11:00:29.591Z,35.67
2022-11-20T11:05:38.580Z,38.30
2022-11-20T11:10:42.358Z,40.92
2022-11-20T11:15:41.178Z,41.25
2022-11-20T11:20:35.726Z,47.72
2022-11-20T11:25:31.908Z,37.50
2022-11-20T11:30:26.860Z,44.40
2022-11-20T11:35:26.128Z,41.67
2022-11-20T11:40:25.236Z,47.55
2022-11-20T11:45:19.471Z,55.00
2022-11-20T11:50:21.812Z,43.25
2022-11-20T11:55:23.737Z,45.70
2022-11-20T12:00:21.169Z,53.60
2022-11-20T12:05:23.843Z,47.30
2022-11-20T12:10:22.784Z,54.85
2022-11-20T12:15:28.491Z,53.97
2022-11-20T12:20:25.244Z,47.72
2022-11-20T12:25:24.138Z,46.22
2022-11-20T12:30:20.041Z,50.33
2022-11-20T12:35:31.538Z,49.50
2022-11-20T12:40:34.689Z,45.42
2022-11-20T12:46:05.389Z,49.60
2022-11-20T12:51:25.872Z,46.97
2022-11-20T12:56:32.820Z,49.97
2022-11-20T13:01:42.178Z,47.55
2022-11-20T13:06:37.953Z,47.83
2022-11-20T13:11:40.341Z,49.92
2022-11-20T13:16:39.308Z,51.28
2022-11-20T13:21:40.809Z,48.05
2022-11-20T13:26:34.563Z,49.17
2022-11-20T13:31:33.862Z,52.70
2022-11-20T13:36:29.155Z,60.08
2022-11-20T13:41:32.519Z,56.00
2022-11-20T13:46:28.225Z,57.83
2022-11-20T13:51:34.890Z,51.65
2022-11-20T13:56:41.640Z,57.25
2022-11-20T14:01:35.823Z,56.42
2022-11-20T14:06:32.501Z,49.60
2022-11-20T14:11:27.489Z,55.42
2022-11-20T14:16:23.777Z,63.28
2022-11-20T14:21:25.194Z,54.80
2022-11-20T14:26:21.451Z,77.95
2022-11-20T14:31:26.489Z,56.38
2022-11-20T14:36:22.489Z,55.05
2022-11-20T14:41:22.993Z,47.25
2022-11-20T14:51:13.481Z,45.33
2022-11-20T14:56:07.150Z,35.85
2022-11-20T15:01:02.386Z,36.53
2022-11-20T15:05:58.588Z,28.38
2022-11-20T15:10:57.201Z,35.53
2022-11-20T15:15:52.259Z,31.35
2022-11-20T15:20:48.132Z,29.73
2022-11-20T15:25:42.282Z,34.13
2022-11-20T15:30:39.244Z,33.42
2022-11-20T15:35:34.746Z,58.58
2022-11-20T15:40:28.063Z,62.70
2022-11-20T15:45:21.385Z,50.92
2022-11-20T15:50:23.714Z,42.30
2022-11-20T15:55:17.096Z,51.47
2022-11-20T16:00:11.868Z,61.53
2022-11-20T16:05:05.694Z,68.53
2022-11-20T16:10:00.443Z,74.68
2022-11-20T16:15:28.215Z,73.88
2022-11-20T16:20:21.916Z,62.50
2022-11-20T16:25:17.143Z,55.53
2022-11-20T16:30:15.337Z,63.65
2022-11-20T16:35:09.129Z,46.75
2022-11-20T16:40:04.607Z,50.72
2022-11-20T16:44:59.276Z,61.30
2022-11-20T16:49:54.651Z,115.05
2022-11-20T16:54:47.921Z,89.43
2022-11-20T16:59:41.197Z,92.40
2022-11-20T17:04:35.944Z,58.70
2022-11-20T17:09:29.258Z,54.72
2022-11-20T17:14:23.151Z,44.03
2022-11-20T17:19:16.650Z,31.38
2022-11-20T17:24:13.160Z,72.18
2022-11-20T17:29:10.169Z,51.67
2022-11-20T17:34:03.685Z,52.22
2022-11-20T17:38:56.932Z,49.03
2022-11-20T17:43:54.815Z,34.72
2022-11-20T17:48:49.668Z,30.05
2022-11-20T17:53:44.948Z,23.13
2022-11-20T17:58:38.237Z,14.98
2022-11-20T18:03:32.884Z,15.02
2022-11-20T18:08:28.812Z,15.93
2022-11-20T18:13:47.499Z,11.23
2022-11-20T18:18:42.378Z,10.98
2022-11-20T18:23:35.741Z,13.65
2022-11-20T18:28:31.985Z,8.73
2022-11-20T18:33:28.561Z,7.07
2022-11-20T18:38:23.361Z,7.82
2022-11-20T18:43:34.182Z,7.88
2022-11-20T18:48:27.462Z,7.85
2022-11-20T18:53:20.787Z,10.90
2022-11-20T18:58:15.459Z,8.88
2022-11-20T19:03:11.387Z,9.40
2022-11-20T19:08:04.941Z,8.88
2022-11-20T19:12:59.362Z,7.05
2022-11-20T19:17:59.148Z,7.00
2022-11-20T19:22:53.699Z,9.35
2022-11-20T19:27:47.473Z,10.35
2022-11-20T19:32:40.776Z,9.52
2022-11-20T19:37:36.147Z,8.90
2022-11-20T19:42:48.204Z,11.82
2022-11-20T19:48:06.472Z,13.90
2022-11-20T19:53:05.231Z,24.50
2022-11-20T19:58:35.251Z,17.52
2022-11-20T20:03:36.452Z,16.60
2022-11-20T20:08:51.766Z,17.45
2022-11-20T20:14:05.636Z,15.65
2022-11-20T20:19:06.024Z,14.25
2022-11-20T20:24:06.477Z,15.73
2022-11-20T20:29:08.563Z,14.05
2022-11-20T20:34:06.173Z,20.38
2022-11-20T20:39:02.976Z,20.92
2022-11-20T20:44:14.127Z,24.23
2022-11-20T20:49:09.314Z,23.23
2022-11-20T20:54:07.879Z,21.85
2022-11-20T20:59:04.540Z,22.00
2022-11-20T21:09:25.889Z,24.70
2022-11-20T21:14:19.612Z,25.08
2022-11-20T21:19:16.431Z,19.73
2022-11-20T21:24:10.795Z,16.10
2022-11-20T21:29:05.525Z,15.93
2022-11-20T21:33:59.490Z,14.32
2022-11-20T21:38:56.761Z,23.38
2022-11-20T21:44:23.666Z,10.38
2022-11-20T21:49:14.937Z,10.57
2022-11-20T21:54:09.241Z,14.70
2022-11-20T21:59:03.051Z,12.98
2022-11-20T22:03:58.162Z,10.75
2022-11-20T22:08:55.931Z,12.90
2022-11-20T22:14:12.869Z,13.52
2022-11-20T22:19:09.533Z,10.23
2022-11-20T22:24:04.547Z,11.20
2022-11-20T22:28:59.463Z,11.63
2022-11-20T22:33:55.251Z,18.08
2022-11-20T22:38:48.648Z,19.92
2022-11-20T22:43:44.366Z,12.50
2022-11-20T22:48:40.338Z,16.85
2022-11-20T22:53:34.128Z,11.02
2022-11-20T22:58:31.466Z,12.98
2022-11-20T23:03:26.246Z,11.80
2022-11-20T23:08:19.693Z,13.10
2022-11-20T23:13:30.351Z,11.15
2022-11-20T23:23:21.844Z,22.05
2022-11-20T23:28:19.645Z,25.15
2022-11-20T23:33:13.010Z,15.07
2022-11-20T23:38:06.188Z,13.93
2022-11-20T23:43:19.149Z,14.25
2022-11-20T23:48:12.560Z,11.73
2022-11-20T23:53:06.580Z,11.23
2022-11-20T23:58:44.995Z,10.95
